Time;durP1;ratioP1;P1;durP2;ratioP2;P2;SDS_P1;SDS_P2;PMS_P1;PMS_P2;Temp;Humidity;BMP_temperature;BMP_pressure;BME280_temperature;BME280_humidity;BME280_pressure;Samples;Min_cycle;Max_cycle;Signal;HPM_P1;HPM_P2
2022/01/16 00:00:47;;;;;;;;;;;1.60;99.90;;;;;;5087719;22;19925;-79
2022/01/16 00:05:57;;;;;;;;;;;1.60;99.90;;;;;;5092417;22;19925;-78
2022/01/16 00:08:23;;;;;;;;;;;1.60;99.90;;;;;;5070715;22;19924;-80
2022/01/16 00:10:48;;;;;;;;;;;1.60;99.90;;;;;;5094072;22;19960;-79
2022/01/16 00:13:23;;;;;;;;;;;1.60;99.90;;;;;;5068418;22;19924;-79
2022/01/16 00:15:48;;;;;;;;;;;1.60;99.90;;;;;;5077760;22;19929;-79
2022/01/16 00:18:27;;;;;;;;;;;1.60;99.90;;;;;;5062111;22;19925;-80
2022/01/16 00:20:53;;;;;;;;;;;1.60;99.90;;;;;;5050798;23;19924;-79
2022/01/16 00:23:27;;;;;;;;;;;1.60;99.90;;;;;;5113063;22;19936;31
2022/01/16 00:25:54;;;;;;;;;;;1.60;99.90;;;;;;5070132;22;20074;-79
2022/01/16 00:28:20;;;;;;;;;;;1.60;99.90;;;;;;5056682;22;19955;-79
2022/01/16 00:30:46;;;;;;;;;;;1.60;99.90;;;;;;5040013;28;20275;-79
2022/01/16 00:33:11;;;;;;;;;;;1.70;99.90;;;;;;5039985;23;19951;-79
2022/01/16 00:35:37;;;;;;;;;;;1.70;99.90;;;;;;5078463;22;19932;-79
2022/01/16 00:38:04;;;;;;;;;;;1.70;99.90;;;;;;5050468;23;19929;-79
2022/01/16 00:40:30;;;;;;;;;;;1.80;99.90;;;;;;5059834;28;19956;-79
2022/01/16 00:42:57;;;;;;;;;;;1.80;99.90;;;;;;5062885;23;20314;-79
2022/01/16 00:45:23;;;;;;;;;;;2.00;99.90;;;;;;5048526;22;20311;-80
2022/01/16 00:47:48;;;;;;;;;;;1.70;99.90;;;;;;5065791;23;19924;-79
2022/01/16 00:52:39;;;;;;;;;;;1.70;99.90;;;;;;5100534;22;19924;-79
2022/01/16 00:55:05;;;;;;;;;;;2.10;99.90;;;;;;5057820;22;19925;-79
2022/01/16 00:57:31;;;;;;;;;;;1.70;99.90;;;;;;5063318;22;20294;-80
2022/01/16 00:59:56;;;;;;;;;;;1.70;99.90;;;;;;5072450;28;19925;-79
2022/01/16 01:02:26;;;;;;;;;;;1.80;99.90;;;;;;5107390;22;19924;31
2022/01/16 01:04:51;;;;;;;;;;;1.80;99.90;;;;;;5081036;23;19925;-79
2022/01/16 01:07:17;;;;;;;;;;;1.80;99.90;;;;;;5059042;28;20011;-79
2022/01/16 01:09:43;;;;;;;;;;;2.40;99.90;;;;;;5058962;28;20015;-79
2022/01/16 01:12:09;;;;;;;;;;;1.90;99.90;;;;;;5055079;23;19925;-79
2022/01/16 01:14:53;;;;;;;;;;;1.80;99.90;;;;;;5073085;22;19947;-80
2022/01/16 01:17:25;;;;;;;;;;;2.60;99.90;;;;;;5071031;23;19965;-79
2022/01/16 01:19:50;;;;;;;;;;;1.80;99.90;;;;;;5079868;22;19926;-79
2022/01/16 01:22:16;;;;;;;;;;;1.80;99.90;;;;;;5073573;22;20011;-79
2022/01/16 01:24:41;;;;;;;;;;;1.80;99.90;;;;;;5056254;22;19924;-79
2022/01/16 01:27:21;;;;;;;;;;;1.90;99.90;;;;;;5061616;22;20020;-79
2022/01/16 01:29:54;;;;;;;;;;;1.80;99.90;;;;;;5074323;22;19924;-79
2022/01/16 01:32:26;;;;;;;;;;;1.80;99.90;;;;;;5061862;22;19924;-80
2022/01/16 01:34:51;;;;;;;;;;;1.80;99.90;;;;;;5085403;22;19924;-79
2022/01/16 01:37:17;;;;;;;;;;;1.80;99.90;;;;;;5078095;22;20298;-79
2022/01/16 01:39:43;;;;;;;;;;;1.80;99.90;;;;;;5074915;28;19925;-79
2022/01/16 01:42:11;;;;;;;;;;;1.80;99.90;;;;;;5080478;22;19925;-79
2022/01/16 01:52:50;;;;;;;;;;;1.70;99.90;;;;;;5058438;28;20275;-79
2022/01/16 01:55:16;;;;;;;;;;;2.50;99.90;;;;;;5048696;23;19925;-79
2022/01/16 01:57:41;;;;;;;;;;;1.70;99.90;;;;;;5041875;28;19924;-79
2022/01/16 02:00:07;;;;;;;;;;;1.70;99.90;;;;;;5061152;23;20396;-79
2022/01/16 02:02:46;;;;;;;;;;;1.70;99.90;;;;;;5083084;22;19924;-79
2022/01/16 02:05:11;;;;;;;;;;;1.70;99.90;;;;;;5072395;22;19924;-79
2022/01/16 02:07:37;;;;;;;;;;;1.70;99.90;;;;;;5048310;23;20325;-79
2022/01/16 02:10:03;;;;;;;;;;;1.70;99.90;;;;;;5085154;23;19924;-79
2022/01/16 02:12:30;;;;;;;;;;;1.70;99.90;;;;;;5082475;22;19932;-79
2022/01/16 02:15:06;;;;;;;;;;;1.70;99.90;;;;;;5087113;23;19925;-79
2022/01/16 02:28:47;;;;;;;;;;;1.70;99.90;;;;;;5103935;22;19960;-80
2022/01/16 02:36:33;;;;;;;;;;;1.80;99.90;;;;;;5083771;22;20295;-79
2022/01/16 02:39:00;;;;;;;;;;;1.80;99.90;;;;;;5059711;22;20403;-79
2022/01/16 02:41:26;;;;;;;;;;;1.80;99.90;;;;;;5083107;22;19951;-80
2022/01/16 02:43:54;;;;;;;;;;;1.80;99.90;;;;;;5076895;22;20603;-79
2022/01/16 02:48:50;;;;;;;;;;;1.80;99.90;;;;;;5071701;22;20007;-79
2022/01/16 02:51:24;;;;;;;;;;;1.90;99.90;;;;;;5055941;22;20007;-79
2022/01/16 02:53:50;;;;;;;;;;;1.90;99.90;;;;;;5078001;22;20071;-79
2022/01/16 02:56:22;;;;;;;;;;;1.90;99.90;;;;;;5063656;22;20439;-79
2022/01/16 02:58:49;;;;;;;;;;;1.90;99.90;;;;;;5074293;22;20309;-79
2022/01/16 03:01:21;;;;;;;;;;;1.90;99.90;;;;;;5052927;22;20023;-80
2022/01/16 03:03:47;;;;;;;;;;;1.90;99.90;;;;;;5079608;22;19925;-79
2022/01/16 03:06:13;;;;;;;;;;;2.00;99.90;;;;;;5079587;22;19950;-80
2022/01/16 03:08:38;;;;;;;;;;;2.00;99.90;;;;;;5070926;22;19980;-79
2022/01/16 03:11:20;;;;;;;;;;;2.70;99.90;;;;;;5069074;22;19924;-79
2022/01/16 03:13:48;;;;;;;;;;;2.00;99.90;;;;;;5075148;22;19980;-79
2022/01/16 03:16:18;;;;;;;;;;;2.00;99.90;;;;;;5062527;22;19924;-79
2022/01/16 03:24:12;;;;;;;;;;;2.10;99.90;;;;;;5084403;22;20333;-79
2022/01/16 03:26:37;;;;;;;;;;;2.10;99.90;;;;;;5071262;22;20022;-79
2022/01/16 03:29:03;;;;;;;;;;;2.10;99.90;;;;;;5054367;23;19924;-79
2022/01/16 03:31:29;;;;;;;;;;;2.10;99.90;;;;;;5107939;22;19924;-80
2022/01/16 03:33:55;;;;;;;;;;;2.10;99.90;;;;;;5083481;22;19971;-79
2022/01/16 03:36:24;;;;;;;;;;;2.20;99.90;;;;;;5072551;22;20464;31
2022/01/16 03:38:49;;;;;;;;;;;2.20;99.90;;;;;;5067229;22;19933;-79
2022/01/16 03:41:22;;;;;;;;;;;2.20;99.90;;;;;;5070341;22;19936;-80
2022/01/16 03:43:49;;;;;;;;;;;2.30;99.90;;;;;;5003982;22;1825635;-79
2022/01/16 03:46:21;;;;;;;;;;;2.30;99.90;;;;;;5066186;22;19924;-80
2022/01/16 03:48:46;;;;;;;;;;;2.30;99.90;;;;;;5078798;22;19925;-80
2022/01/16 03:51:12;;;;;;;;;;;2.30;99.90;;;;;;5093412;22;19924;-79
2022/01/16 03:53:37;;;;;;;;;;;2.50;99.90;;;;;;5054685;22;20264;-79
2022/01/16 03:56:03;;;;;;;;;;;2.40;99.90;;;;;;5063911;22;19924;-79
2022/01/16 03:58:29;;;;;;;;;;;2.40;99.90;;;;;;5092162;22;19924;-80
2022/01/16 04:00:54;;;;;;;;;;;2.40;99.90;;;;;;5062965;22;19931;-79
2022/01/16 04:03:27;;;;;;;;;;;2.40;99.90;;;;;;5070456;22;20015;-79
2022/01/16 04:05:53;;;;;;;;;;;2.50;99.90;;;;;;5083916;22;19947;-79
2022/01/16 04:08:20;;;;;;;;;;;2.50;99.90;;;;;;5105024;22;20363;-79
2022/01/16 04:10:45;;;;;;;;;;;2.50;99.90;;;;;;5086005;22;19924;-79
2022/01/16 04:13:12;;;;;;;;;;;2.50;99.90;;;;;;5070506;22;20429;-80
2022/01/16 04:15:38;;;;;;;;;;;2.70;99.90;;;;;;5086415;22;19924;-79
2022/01/16 04:18:05;;;;;;;;;;;2.50;99.90;;;;;;5063687;22;19924;-79
2022/01/16 04:20:30;;;;;;;;;;;2.50;99.90;;;;;;5078220;22;20431;-80
2022/01/16 04:22:56;;;;;;;;;;;2.60;99.90;;;;;;5064450;22;19925;-79
2022/01/16 04:25:28;;;;;;;;;;;2.60;99.90;;;;;;5070870;22;19971;-79
2022/01/16 04:27:53;;;;;;;;;;;2.60;99.90;;;;;;5083724;22;19924;-79
2022/01/16 04:30:23;;;;;;;;;;;2.60;99.90;;;;;;5104651;22;19924;-80
2022/01/16 04:32:49;;;;;;;;;;;2.60;99.90;;;;;;5085865;22;19925;-79
2022/01/16 04:35:21;;;;;;;;;;;2.60;99.90;;;;;;5065179;22;19924;-80
2022/01/16 04:37:47;;;;;;;;;;;2.60;99.90;;;;;;5074186;22;19960;-79
2022/01/16 04:40:13;;;;;;;;;;;2.70;99.90;;;;;;5059819;22;20017;-79
2022/01/16 04:45:27;;;;;;;;;;;2.70;99.90;;;;;;5077050;22;19928;31
2022/01/16 04:47:53;;;;;;;;;;;2.70;99.90;;;;;;5066657;22;19925;-79
2022/01/16 04:50:27;;;;;;;;;;;2.70;99.90;;;;;;5081347;22;19982;31
2022/01/16 04:52:52;;;;;;;;;;;2.70;99.90;;;;;;5074773;22;19959;-79
2022/01/16 04:55:25;;;;;;;;;;;2.80;99.90;;;;;;5074756;22;19932;-79
2022/01/16 04:57:51;;;;;;;;;;;2.80;99.90;;;;;;5085675;22;19935;-79
2022/01/16 05:00:23;;;;;;;;;;;2.80;99.90;;;;;;5070060;23;20371;-79
2022/01/16 05:02:48;;;;;;;;;;;2.80;99.90;;;;;;5086121;22;20301;-79
2022/01/16 05:05:14;;;;;;;;;;;2.80;99.90;;;;;;5070518;23;19963;-79
2022/01/16 05:07:40;;;;;;;;;;;2.80;99.90;;;;;;5089658;22;19925;-79
2022/01/16 05:10:06;;;;;;;;;;;2.80;99.90;;;;;;5079595;22;20362;-79
2022/01/16 05:12:38;;;;;;;;;;;2.80;99.90;;;;;;5066346;22;20298;-80
2022/01/16 05:17:48;;;;;;;;;;;2.80;99.90;;;;;;5093358;22;19932;-79
2022/01/16 05:20:13;;;;;;;;;;;2.90;99.90;;;;;;5082593;23;19924;-80
2022/01/16 05:22:39;;;;;;;;;;;2.90;99.90;;;;;;5074899;22;20054;-79
2022/01/16 05:25:07;;;;;;;;;;;2.80;99.90;;;;;;5083007;23;20580;-79
2022/01/16 05:27:32;;;;;;;;;;;2.90;99.90;;;;;;5105763;22;19977;-80
2022/01/16 05:29:58;;;;;;;;;;;2.90;99.90;;;;;;5064749;23;19928;-80
2022/01/16 05:32:30;;;;;;;;;;;2.90;99.90;;;;;;5068892;22;19924;-79
2022/01/16 05:34:56;;;;;;;;;;;2.90;99.90;;;;;;5063432;23;20027;-79
2022/01/16 05:37:21;;;;;;;;;;;3.00;99.90;;;;;;5061840;28;19924;-79
2022/01/16 05:39:49;;;;;;;;;;;2.90;99.90;;;;;;5079112;28;19931;-79
2022/01/16 05:42:15;;;;;;;;;;;3.60;99.90;;;;;;5078827;28;19924;-79
2022/01/16 05:44:40;;;;;;;;;;;3.60;99.90;;;;;;5068899;22;19931;-79
2022/01/16 05:47:06;;;;;;;;;;;3.00;99.90;;;;;;5071879;22;20361;-79
2022/01/16 05:49:31;;;;;;;;;;;3.00;99.90;;;;;;5061757;28;19931;-80
2022/01/16 05:51:57;;;;;;;;;;;3.10;99.90;;;;;;5077903;28;19924;-79
2022/01/16 05:54:22;;;;;;;;;;;3.40;99.90;;;;;;5061555;28;19930;-79
2022/01/16 05:56:48;;;;;;;;;;;3.10;99.90;;;;;;5061616;28;20014;-79
2022/01/16 05:59:14;;;;;;;;;;;3.50;99.90;;;;;;5072600;22;19932;-79
2022/01/16 06:01:39;;;;;;;;;;;3.10;99.90;;;;;;5078790;28;20015;-79
2022/01/16 06:04:05;;;;;;;;;;;3.60;99.90;;;;;;5089553;22;19974;-79
2022/01/16 06:06:30;;;;;;;;;;;3.20;99.90;;;;;;5080563;22;19925;-80
2022/01/16 06:08:56;;;;;;;;;;;3.20;99.90;;;;;;5075137;28;20440;-79
2022/01/16 06:11:21;;;;;;;;;;;3.30;99.90;;;;;;5075117;28;20314;-80
2022/01/16 06:13:47;;;;;;;;;;;3.60;99.90;;;;;;5075274;28;20379;-79
2022/01/16 06:16:13;;;;;;;;;;;4.00;99.90;;;;;;5080438;22;20379;-80
2022/01/16 06:18:38;;;;;;;;;;;3.50;99.90;;;;;;5074746;28;20363;-79
2022/01/16 06:21:04;;;;;;;;;;;3.40;99.90;;;;;;5074546;28;19993;-79
2022/01/16 06:23:29;;;;;;;;;;;4.10;99.90;;;;;;5075648;28;20033;-79
2022/01/16 06:25:55;;;;;;;;;;;3.50;99.90;;;;;;5080141;22;20385;-79
2022/01/16 06:28:21;;;;;;;;;;;4.10;99.90;;;;;;5074643;28;19924;-79
2022/01/16 06:30:47;;;;;;;;;;;4.00;99.90;;;;;;5080717;22;19929;-79
2022/01/16 06:33:13;;;;;;;;;;;3.60;99.90;;;;;;5074763;28;19932;-79
2022/01/16 06:35:38;;;;;;;;;;;3.60;99.90;;;;;;5081548;22;19932;-79
2022/01/16 06:38:04;;;;;;;;;;;4.30;99.90;;;;;;5040797;28;19924;-80
2022/01/16 06:40:30;;;;;;;;;;;3.70;99.90;;;;;;5072225;23;19924;-80
2022/01/16 06:42:56;;;;;;;;;;;3.70;99.90;;;;;;5068455;22;20041;-79
2022/01/16 06:45:21;;;;;;;;;;;3.80;99.90;;;;;;5111814;28;19928;-79
2022/01/16 06:47:47;;;;;;;;;;;3.80;99.90;;;;;;5086431;23;19927;-79
2022/01/16 06:50:12;;;;;;;;;;;3.80;99.90;;;;;;5107185;22;19990;-79
2022/01/16 06:52:38;;;;;;;;;;;3.80;99.90;;;;;;5084011;22;19970;-79
2022/01/16 06:55:04;;;;;;;;;;;3.80;99.90;;;;;;5059900;23;19925;-79
2022/01/16 06:57:29;;;;;;;;;;;3.90;99.90;;;;;;5038846;28;19924;-79
2022/01/16 06:59:55;;;;;;;;;;;4.60;99.90;;;;;;5037492;28;19975;-79
2022/01/16 07:02:22;;;;;;;;;;;4.50;99.90;;;;;;5103167;22;20020;-80
2022/01/16 07:04:48;;;;;;;;;;;4.00;99.90;;;;;;5114873;27;19924;-79
2022/01/16 07:07:13;;;;;;;;;;;4.10;99.90;;;;;;5100705;27;20286;-79
2022/01/16 07:09:39;;;;;;;;;;;4.80;99.90;;;;;;5095415;23;20185;-79
2022/01/16 07:12:05;;;;;;;;;;;4.10;99.90;;;;;;5097623;28;20296;-79
2022/01/16 07:14:31;;;;;;;;;;;4.20;99.90;;;;;;5071633;22;19928;-79
2022/01/16 07:16:57;;;;;;;;;;;4.20;99.90;;;;;;5082638;23;20007;-80
2022/01/16 07:19:22;;;;;;;;;;;4.30;99.90;;;;;;5078038;28;19932;-79
2022/01/16 07:21:48;;;;;;;;;;;4.40;99.90;;;;;;5084066;22;19931;-79
2022/01/16 07:24:15;;;;;;;;;;;5.00;99.90;;;;;;5065770;23;19931;-79
2022/01/16 07:26:42;;;;;;;;;;;4.50;99.90;;;;;;5085797;22;20290;-79
2022/01/16 07:29:07;;;;;;;;;;;4.50;99.90;;;;;;5093627;23;19977;-80
2022/01/16 07:31:33;;;;;;;;;;;4.50;99.90;;;;;;5077437;28;19928;-80
2022/01/16 07:33:59;;;;;;;;;;;4.60;99.90;;;;;;5076803;28;19924;-79
2022/01/16 07:36:24;;;;;;;;;;;4.60;99.90;;;;;;5084153;22;19931;-80
2022/01/16 07:38:50;;;;;;;;;;;5.10;99.90;;;;;;5085169;23;19931;-80
2022/01/16 07:43:41;;;;;;;;;;;4.50;99.90;;;;;;5096360;22;19924;-80
2022/01/16 07:46:06;;;;;;;;;;;5.20;99.90;;;;;;5040201;28;19977;-79
2022/01/16 07:48:32;;;;;;;;;;;4.80;99.90;;;;;;5040477;28;19939;-80
2022/01/16 07:50:58;;;;;;;;;;;4.60;99.90;;;;;;5058208;23;19931;-79
2022/01/16 07:53:23;;;;;;;;;;;5.00;99.90;;;;;;5056548;28;19925;-80
2022/01/16 07:55:49;;;;;;;;;;;5.20;99.90;;;;;;5070192;22;19928;-80
2022/01/16 07:58:14;;;;;;;;;;;4.60;99.90;;;;;;5040578;28;20019;-80
2022/01/16 08:00:40;;;;;;;;;;;4.70;99.90;;;;;;5066616;22;19924;-80
2022/01/16 08:03:06;;;;;;;;;;;4.70;99.90;;;;;;5079829;28;20395;-79
2022/01/16 08:05:34;;;;;;;;;;;5.30;99.90;;;;;;5082088;22;19924;-80
2022/01/16 08:07:59;;;;;;;;;;;4.70;99.90;;;;;;5076006;28;20367;-79
2022/01/16 08:10:25;;;;;;;;;;;4.70;99.90;;;;;;5081987;22;19924;-80
2022/01/16 08:12:50;;;;;;;;;;;5.00;99.90;;;;;;5092555;22;20074;-79
2022/01/16 08:15:23;;;;;;;;;;;4.70;99.90;;;;;;5100541;22;19928;-80
2022/01/16 08:17:48;;;;;;;;;;;4.70;99.90;;;;;;5017706;28;20019;-80
2022/01/16 08:20:14;;;;;;;;;;;4.70;99.90;;;;;;5019778;28;19979;-80
2022/01/16 08:22:39;;;;;;;;;;;4.70;99.90;;;;;;5049360;22;19923;-80
2022/01/16 08:25:06;;;;;;;;;;;4.70;99.90;;;;;;5060206;28;19924;-80
2022/01/16 08:27:31;;;;;;;;;;;4.70;99.90;;;;;;5098857;22;19934;-79
2022/01/16 08:29:58;;;;;;;;;;;5.40;99.90;;;;;;5097393;22;19924;-80
2022/01/16 08:32:23;;;;;;;;;;;4.80;99.90;;;;;;5080671;22;19974;-80
2022/01/16 08:34:49;;;;;;;;;;;4.80;99.90;;;;;;5072150;22;19929;-80
2022/01/16 08:37:14;;;;;;;;;;;4.90;99.90;;;;;;5066941;22;19932;-80
2022/01/16 08:39:40;;;;;;;;;;;4.90;99.90;;;;;;5089708;22;19928;-79
2022/01/16 08:42:06;;;;;;;;;;;5.60;99.90;;;;;;5084738;22;20378;-80
2022/01/16 08:44:32;;;;;;;;;;;5.00;99.90;;;;;;5075360;22;19954;-80
2022/01/16 08:46:57;;;;;;;;;;;5.00;99.90;;;;;;5076443;28;20378;-79
2022/01/16 08:51:48;;;;;;;;;;;5.20;99.90;;;;;;5093474;22;19928;-80
2022/01/16 08:54:14;;;;;;;;;;;5.50;99.90;;;;;;5092944;22;19931;-81
2022/01/16 08:56:39;;;;;;;;;;;5.30;99.90;;;;;;5081445;22;20302;-81
2022/01/16 08:59:05;;;;;;;;;;;5.30;99.90;;;;;;5097852;22;20009;-80
2022/01/16 09:01:31;;;;;;;;;;;5.30;99.90;;;;;;5076762;22;19973;-80
2022/01/16 09:03:56;;;;;;;;;;;5.30;99.90;;;;;;5088564;22;19931;-80
2022/01/16 09:06:22;;;;;;;;;;;6.10;99.90;;;;;;5090474;22;19932;-81
2022/01/16 09:08:48;;;;;;;;;;;5.40;99.90;;;;;;5088532;22;20318;-80
2022/01/16 09:11:13;;;;;;;;;;;5.40;99.90;;;;;;5076851;22;19924;-80
2022/01/16 09:13:40;;;;;;;;;;;5.50;99.90;;;;;;5092278;22;19952;-81
2022/01/16 09:16:07;;;;;;;;;;;5.40;99.90;;;;;;5080147;22;19932;-80
2022/01/16 09:18:33;;;;;;;;;;;5.40;99.90;;;;;;5091886;22;20276;-80
2022/01/16 09:21:00;;;;;;;;;;;5.40;99.90;;;;;;5074104;28;19931;-81
2022/01/16 09:25:56;;;;;;;;;;;5.50;99.90;;;;;;5109509;22;19924;-80
2022/01/16 09:28:21;;;;;;;;;;;5.50;99.90;;;;;;5082286;22;19929;-81
2022/01/16 09:30:47;;;;;;;;;;;5.40;99.90;;;;;;5060854;28;20000;-81
2022/01/16 09:33:13;;;;;;;;;;;6.00;99.90;;;;;;5085096;22;19925;-80
2022/01/16 09:35:38;;;;;;;;;;;5.50;99.90;;;;;;5070327;22;20316;-80
2022/01/16 09:38:06;;;;;;;;;;;5.50;99.90;;;;;;5077738;22;19987;-80
2022/01/16 09:40:33;;;;;;;;;;;5.50;99.90;;;;;;5081252;22;19925;-81
2022/01/16 09:42:59;;;;;;;;;;;5.50;99.90;;;;;;5077739;22;19936;-80
2022/01/16 09:45:26;;;;;;;;;;;5.50;99.90;;;;;;5088163;23;19925;-81
2022/01/16 09:47:51;;;;;;;;;;;5.50;99.90;;;;;;5083174;23;19967;-80
2022/01/16 09:50:22;;;;;;;;;;;5.50;99.90;;;;;;5071393;23;19924;-81
2022/01/16 09:52:48;;;;;;;;;;;6.00;99.90;;;;;;5100828;22;19924;-80
2022/01/16 09:55:13;;;;;;;;;;;5.60;99.90;;;;;;5072521;22;19996;-81
2022/01/16 09:57:39;;;;;;;;;;;5.60;99.90;;;;;;5081928;28;19948;-81
2022/01/16 10:00:07;;;;;;;;;;;5.60;99.90;;;;;;5086964;22;19925;-80
2022/01/16 10:02:32;;;;;;;;;;;5.60;99.90;;;;;;5086971;22;19931;-80
2022/01/16 10:04:58;;;;;;;;;;;5.60;99.90;;;;;;5087353;22;19984;-80
2022/01/16 10:07:23;;;;;;;;;;;6.20;99.90;;;;;;5092271;22;19931;-80
2022/01/16 10:10:12;;;;;;;;;;;5.60;99.90;;;;;;5094119;22;19963;-80
2022/01/16 10:12:45;;;;;;;;;;;5.60;99.90;;;;;;5091813;22;19923;-80
2022/01/16 10:15:19;;;;;;;;;;;6.30;99.90;;;;;;5080814;23;19931;-80
2022/01/16 10:17:49;;;;;;;;;;;5.70;99.90;;;;;;5081672;22;19932;-80
2022/01/16 10:20:18;;;;;;;;;;;5.70;99.90;;;;;;5082658;23;19923;-81
2022/01/16 10:22:46;;;;;;;;;;;5.70;99.90;;;;;;5111219;22;19931;-81
2022/01/16 10:25:12;;;;;;;;;;;5.70;99.90;;;;;;5087456;28;19924;-81
2022/01/16 10:27:39;;;;;;;;;;;5.70;99.90;;;;;;5091022;22;19968;-80
2022/01/16 10:30:07;;;;;;;;;;;6.30;99.90;;;;;;5074866;23;19947;-80
2022/01/16 10:32:36;;;;;;;;;;;5.80;99.90;;;;;;5075481;22;19939;-81
2022/01/16 10:35:20;;;;;;;;;;;5.80;99.90;;;;;;5083673;22;19924;-80
2022/01/16 10:37:47;;;;;;;;;;;5.80;99.90;;;;;;5074215;23;19924;-80
2022/01/16 10:40:16;;;;;;;;;;;5.80;99.90;;;;;;5080971;22;19959;-81
2022/01/16 10:42:47;;;;;;;;;;;5.90;99.90;;;;;;5107017;22;19946;-81
2022/01/16 10:45:13;;;;;;;;;;;5.90;99.90;;;;;;5087946;23;19925;-81
2022/01/16 10:47:39;;;;;;;;;;;5.90;99.90;;;;;;5069755;22;19928;-80
2022/01/16 10:50:13;;;;;;;;;;;5.90;99.90;;;;;;5110548;22;19930;-80
2022/01/16 10:52:58;;;;;;;;;;;5.90;99.90;;;;;;5087454;28;19924;-80
2022/01/16 10:55:31;;;;;;;;;;;5.90;99.90;;;;;;5076157;22;19924;-80
2022/01/16 10:58:01;;;;;;;;;;;5.90;99.90;;;;;;5093152;23;19924;-80
2022/01/16 11:00:27;;;;;;;;;;;6.00;99.90;;;;;;5100753;22;19931;-81
2022/01/16 11:02:54;;;;;;;;;;;6.60;99.90;;;;;;5090491;22;19924;-80
2022/01/16 11:07:46;;;;;;;;;;;6.00;99.90;;;;;;5136171;22;20286;-81
2022/01/16 11:10:20;;;;;;;;;;;6.10;99.90;;;;;;5089341;23;20293;-80
2022/01/16 11:12:46;;;;;;;;;;;6.00;99.90;;;;;;5092148;22;19933;-80
2022/01/16 11:15:12;;;;;;;;;;;6.10;99.90;;;;;;5085430;23;19924;-81
2022/01/16 11:17:38;;;;;;;;;;;6.10;99.90;;;;;;5098016;22;19924;-81
2022/01/16 11:20:05;;;;;;;;;;;6.20;99.90;;;;;;5101780;22;19931;-80
2022/01/16 11:22:35;;;;;;;;;;;6.20;99.90;;;;;;5097804;23;19979;-79
2022/01/16 11:25:12;;;;;;;;;;;6.20;99.90;;;;;;5105240;22;19931;-81
2022/01/16 11:27:39;;;;;;;;;;;6.20;99.90;;;;;;5098699;28;19977;-80
2022/01/16 11:30:05;;;;;;;;;;;6.40;99.90;;;;;;5068413;22;20363;-80
2022/01/16 11:32:31;;;;;;;;;;;6.20;99.90;;;;;;5091347;22;19924;-80
2022/01/16 11:34:57;;;;;;;;;;;6.30;99.90;;;;;;5052653;23;19947;-80
2022/01/16 11:37:26;;;;;;;;;;;6.30;99.90;;;;;;5108865;22;19924;-80
2022/01/16 11:39:51;;;;;;;;;;;6.40;99.90;;;;;;5103104;22;19939;-80
2022/01/16 11:42:35;;;;;;;;;;;6.40;99.90;;;;;;5088433;23;20607;-80
2022/01/16 11:45:00;;;;;;;;;;;6.50;99.90;;;;;;5039300;28;19925;-80
2022/01/16 11:47:26;;;;;;;;;;;6.50;99.90;;;;;;5042899;23;19932;-81
2022/01/16 11:50:05;;;;;;;;;;;6.60;99.90;;;;;;5023416;22;1918986;-80
2022/01/16 11:52:37;;;;;;;;;;;6.60;99.90;;;;;;5084834;22;20282;-81
2022/01/16 11:55:07;;;;;;;;;;;6.60;99.90;;;;;;5064684;22;20395;-82
2022/01/16 11:57:34;;;;;;;;;;;6.70;99.90;;;;;;5091624;22;19924;-82
2022/01/16 12:00:05;;;;;;;;;;;6.70;99.90;;;;;;5080699;22;19924;-81
2022/01/16 12:02:36;;;;;;;;;;;6.70;99.90;;;;;;5080256;22;19996;-81
2022/01/16 12:05:02;;;;;;;;;;;6.70;99.90;;;;;;5095470;22;20437;-81
2022/01/16 12:07:34;;;;;;;;;;;6.70;99.90;;;;;;5069561;22;19925;-81
2022/01/16 12:09:59;;;;;;;;;;;6.80;99.90;;;;;;5069326;22;20348;-81
2022/01/16 12:12:31;;;;;;;;;;;6.70;99.90;;;;;;5047312;22;19996;31
2022/01/16 12:15:02;;;;;;;;;;;6.70;99.90;;;;;;5037707;23;19925;-81
2022/01/16 12:20:18;;;;;;;;;;;6.70;99.90;;;;;;5111295;22;19924;-81
2022/01/16 12:22:43;;;;;;;;;;;6.70;99.90;;;;;;5086231;28;19931;-81
2022/01/16 12:25:18;;;;;;;;;;;6.90;99.90;;;;;;5098476;22;19925;-81
2022/01/16 12:27:45;;;;;;;;;;;6.70;99.90;;;;;;5089330;23;19924;-81
2022/01/16 12:30:14;;;;;;;;;;;6.70;99.90;;;;;;5084742;23;19924;-81
2022/01/16 12:33:00;;;;;;;;;;;6.70;99.90;;;;;;5108297;28;19924;-83
2022/01/16 12:35:41;;;;;;;;;;;6.70;99.90;;;;;;5018430;22;20020;-81
2022/01/16 12:38:07;;;;;;;;;;;6.70;99.90;;;;;;5080516;23;20066;-81
2022/01/16 12:40:33;;;;;;;;;;;6.70;99.90;;;;;;5077982;22;20198;-81
2022/01/16 12:43:02;;;;;;;;;;;6.70;99.90;;;;;;5092436;23;20522;-81
2022/01/16 12:45:29;;;;;;;;;;;6.70;99.90;;;;;;5098606;22;19928;-82
2022/01/16 12:47:56;;;;;;;;;;;6.70;99.90;;;;;;5099585;22;19939;-81
2022/01/16 12:50:21;;;;;;;;;;;6.70;99.90;;;;;;5083308;22;19992;-81
2022/01/16 12:52:47;;;;;;;;;;;6.60;99.90;;;;;;5088768;22;19968;-81
2022/01/16 12:55:13;;;;;;;;;;;6.70;99.90;;;;;;5080605;22;19924;-81
2022/01/16 12:57:38;;;;;;;;;;;6.60;99.90;;;;;;5093767;22;19916;-81
2022/01/16 13:00:08;;;;;;;;;;;6.70;99.90;;;;;;5086348;22;19925;-81
2022/01/16 13:02:34;;;;;;;;;;;6.70;99.90;;;;;;5092415;22;19924;-81
2022/01/16 13:04:59;;;;;;;;;;;6.60;99.90;;;;;;5103334;22;19931;-80
2022/01/16 13:07:29;;;;;;;;;;;6.60;99.90;;;;;;5090702;22;20330;31
2022/01/16 13:09:55;;;;;;;;;;;6.60;99.90;;;;;;5032089;23;19935;-81
2022/01/16 13:12:24;;;;;;;;;;;6.60;99.90;;;;;;5099157;22;19940;-81
2022/01/16 13:14:50;;;;;;;;;;;6.60;99.90;;;;;;5123178;22;19931;-81
2022/01/16 13:17:22;;;;;;;;;;;6.50;99.90;;;;;;5101786;22;19999;-81
2022/01/16 13:19:53;;;;;;;;;;;6.50;99.90;;;;;;5112536;22;19931;-81
2022/01/16 13:22:25;;;;;;;;;;;6.60;99.90;;;;;;5095221;22;19924;-83
2022/01/16 13:24:55;;;;;;;;;;;6.50;99.90;;;;;;5058061;28;20482;-83
2022/01/16 13:27:24;;;;;;;;;;;6.50;99.90;;;;;;5070451;28;20015;-82
2022/01/16 13:29:57;;;;;;;;;;;6.50;99.90;;;;;;5047337;28;19925;-83
2022/01/16 13:32:28;;;;;;;;;;;6.50;99.90;;;;;;5079630;28;19928;-81
2022/01/16 13:34:54;;;;;;;;;;;6.60;99.90;;;;;;5080481;22;20433;-81
2022/01/16 13:37:22;;;;;;;;;;;6.60;99.90;;;;;;5048533;28;19924;-81
2022/01/16 13:39:50;;;;;;;;;;;6.70;99.90;;;;;;5071287;22;20057;-82
2022/01/16 13:42:16;;;;;;;;;;;6.70;99.90;;;;;;5074967;28;19979;-84
2022/01/16 13:44:41;;;;;;;;;;;6.70;99.90;;;;;;5083111;28;19982;-82
2022/01/16 13:47:07;;;;;;;;;;;7.20;99.90;;;;;;5058996;28;19924;-81
2022/01/16 13:49:33;;;;;;;;;;;7.00;99.90;;;;;;5096634;22;20260;-82
2022/01/16 13:51:59;;;;;;;;;;;7.20;99.90;;;;;;5088283;22;19924;-83
2022/01/16 13:54:29;;;;;;;;;;;6.90;99.90;;;;;;5069900;22;19928;-88
2022/01/16 13:57:01;;;;;;;;;;;6.90;99.90;;;;;;5059276;23;20409;-93
2022/01/16 13:59:27;;;;;;;;;;;6.90;99.90;;;;;;5049356;28;19983;-87
2022/01/16 14:01:55;;;;;;;;;;;6.90;99.90;;;;;;5071763;28;19971;-85
2022/01/16 14:04:21;;;;;;;;;;;6.90;99.90;;;;;;5096247;28;19924;-84
2022/01/16 14:06:50;;;;;;;;;;;7.00;99.90;;;;;;5094039;28;19924;-84
2022/01/16 14:09:16;;;;;;;;;;;6.90;99.90;;;;;;5080353;28;19930;-84
2022/01/16 14:11:43;;;;;;;;;;;7.00;99.90;;;;;;5095307;28;20362;-84
2022/01/16 14:14:09;;;;;;;;;;;7.00;99.90;;;;;;5077282;28;20019;-84
2022/01/16 14:19:27;;;;;;;;;;;6.90;99.90;;;;;;5102270;28;19981;-85
2022/01/16 14:22:02;;;;;;;;;;;6.90;99.90;;;;;;5082995;28;19971;-85
2022/01/16 14:24:37;;;;;;;;;;;6.90;99.90;;;;;;5094131;28;19978;-84
2022/01/16 14:27:06;;;;;;;;;;;6.90;99.90;;;;;;5092405;28;20366;-85
2022/01/16 14:29:32;;;;;;;;;;;6.90;99.90;;;;;;5090808;28;20384;-87
2022/01/16 14:31:58;;;;;;;;;;;6.90;99.90;;;;;;5080149;28;19920;-88
2022/01/16 14:34:25;;;;;;;;;;;6.90;99.90;;;;;;5083801;28;20896;-85
2022/01/16 14:36:51;;;;;;;;;;;6.90;99.90;;;;;;5088747;28;20289;-86
2022/01/16 14:39:16;;;;;;;;;;;6.90;99.90;;;;;;5055726;28;19977;-88
2022/01/16 14:41:50;;;;;;;;;;;6.90;99.90;;;;;;5076426;28;19963;-86
2022/01/16 14:44:19;;;;;;;;;;;6.90;99.90;;;;;;5073384;28;19927;-85
2022/01/16 14:46:46;;;;;;;;;;;6.90;99.90;;;;;;5090195;28;20001;-87
2022/01/16 14:49:11;;;;;;;;;;;6.90;99.90;;;;;;5076746;28;19924;-88
2022/01/16 14:51:37;;;;;;;;;;;6.80;99.90;;;;;;5065010;28;19947;-87
2022/01/16 14:54:03;;;;;;;;;;;6.80;99.90;;;;;;5080920;22;19935;-88
2022/01/16 14:56:29;;;;;;;;;;;6.80;99.90;;;;;;5094172;28;19935;-88
2022/01/16 14:58:54;;;;;;;;;;;6.80;99.90;;;;;;5085272;28;19931;-84
2022/01/16 15:01:20;;;;;;;;;;;6.80;99.90;;;;;;5090853;28;19973;-91
2022/01/16 15:03:45;;;;;;;;;;;6.80;99.90;;;;;;5075078;28;20292;-86
2022/01/16 15:06:11;;;;;;;;;;;6.70;99.90;;;;;;5088961;28;19932;-85
2022/01/16 15:08:38;;;;;;;;;;;7.10;99.90;;;;;;5101022;28;19928;-90
2022/01/16 15:11:14;;;;;;;;;;;6.60;99.90;;;;;;5090785;28;19974;-85
2022/01/16 15:13:40;;;;;;;;;;;6.60;99.90;;;;;;5086434;28;19916;-88
2022/01/16 15:16:06;;;;;;;;;;;6.60;99.90;;;;;;5088304;28;20319;-90
2022/01/16 15:18:33;;;;;;;;;;;6.60;99.90;;;;;;5086006;28;20374;-90
2022/01/16 15:21:00;;;;;;;;;;;6.60;99.90;;;;;;5091204;28;19976;-94
2022/01/16 15:23:26;;;;;;;;;;;6.50;99.90;;;;;;5095669;28;20277;-94
2022/01/16 15:26:01;;;;;;;;;;;6.50;99.90;;;;;;5093647;28;19925;-93
2022/01/16 15:28:28;;;;;;;;;;;6.50;99.90;;;;;;5096178;28;19924;-90
2022/01/16 15:30:54;;;;;;;;;;;6.80;99.90;;;;;;5092101;28;19924;-88